KEWR/EWR METAR and TAF weather

Enter ICAO airport designator
Station Type Date Time Source
KEWR METAR 2020/01/28 11:51 UTC NOAA

KEWR 281151Z 29009KT 10SM SCT034 BKN065 03/M03 A2979 RMK AO2 SLP087 T00331033 10044 20033 53007


Station Type Date Time Source
KEWR Decoded METAR 2020/01/28 11:51 UTC NOAA

NEWARK INTERNATIONAL AIRPORT, NJ, United States (KEWR) 40-41N 74-10W 7M
Jan 28, 2020 - 06:51 AM EST / 2020.01.28 1151 UTC
Wind: from the WNW (290 degrees) at 10 MPH (9 KT):0
Visibility: 10 mile(s):0
Sky conditions: mostly cloudy
Temperature: 37.9 F (3.3 C)
Dew Point: 26.1 F (-3.3 C)
Relative Humidity: 61%
Pressure (altimeter): 29.79 in. Hg (1008 hPa)
Pressure tendency: 0.02 inches (0.7 hPa) higher than three hours ago
ob: KEWR 281151Z 29009KT 10SM SCT034 BKN065 03/M03 A2979 RMK AO2 SLP087 T00331033 10044 20033 53007
cycle: 12

Station Type Date Time Source
KEWR TAF 2020/01/28 12:24 UTC NOAA

TAF KEWR 281122Z 2812/2918 31010KT P6SM FEW040 BKN060
FM281500 31013G20KT P6SM BKN040
FM282300 32012KT P6SM BKN040
FM290100 32010KT P6SM SCT040
FM291200 33012KT P6SM FEW250

Example: see airport list